createdAt,value
2019-02-16T00:00:42.464Z,92.70
2019-02-16T00:03:46.355Z,100.63
2019-02-16T00:06:50.294Z,100.83
2019-02-16T00:09:54.132Z,101.77
2019-02-16T00:12:58.004Z,95.03
2019-02-16T00:16:01.844Z,87.77
2019-02-16T00:19:05.682Z,92.43
2019-02-16T00:22:09.566Z,97.73
2019-02-16T00:25:13.445Z,102.97
2019-02-16T00:28:17.319Z,96.83
2019-02-16T00:31:21.269Z,96.90
2019-02-16T00:34:25.132Z,96.37
2019-02-16T00:37:29.045Z,92.07
2019-02-16T00:40:32.869Z,98.63
2019-02-16T00:43:36.734Z,85.43
2019-02-16T00:46:41.477Z,82.97
2019-02-16T00:49:45.383Z,85.07
2019-02-16T00:52:49.217Z,93.63
2019-02-16T00:55:53.129Z,94.20
2019-02-16T00:58:57.008Z,82.90
2019-02-16T01:02:00.905Z,90.87
2019-02-16T01:05:06.116Z,86.57
2019-02-16T01:08:09.952Z,79.93
2019-02-16T01:11:13.851Z,79.23
2019-02-16T01:14:17.703Z,85.57
2019-02-16T01:17:21.577Z,77.37
2019-02-16T01:20:25.447Z,85.57
2019-02-16T01:23:29.312Z,79.30
2019-02-16T01:26:33.210Z,86.60
2019-02-16T01:29:37.045Z,83.60
2019-02-16T01:32:40.936Z,82.27
2019-02-16T01:35:44.773Z,81.20
2019-02-16T01:38:48.624Z,81.17
2019-02-16T01:41:52.492Z,89.80
2019-02-16T01:44:56.350Z,84.27
2019-02-16T01:48:00.256Z,85.07
2019-02-16T01:51:04.209Z,81.07
2019-02-16T01:54:08.079Z,81.17
2019-02-16T01:57:11.944Z,83.47
2019-02-16T02:00:15.821Z,79.83
2019-02-16T02:03:19.677Z,81.23
2019-02-16T02:06:23.539Z,79.13
2019-02-16T02:09:27.472Z,81.13
2019-02-16T02:12:31.305Z,81.33
2019-02-16T02:15:35.195Z,75.87
2019-02-16T02:18:39.029Z,73.67
2019-02-16T02:21:42.925Z,83.47
2019-02-16T02:24:46.764Z,69.10
2019-02-16T02:27:50.664Z,83.50
2019-02-16T02:30:54.500Z,76.07
2019-02-16T02:33:58.398Z,81.63
2019-02-16T02:37:02.295Z,78.73
2019-02-16T02:40:08.454Z,79.40
2019-02-16T02:43:12.313Z,81.97
2019-02-16T02:46:16.155Z,80.93
2019-02-16T02:49:20.027Z,78.43
2019-02-16T02:52:23.969Z,81.60
2019-02-16T02:55:27.823Z,80.83
2019-02-16T02:58:31.720Z,79.40
2019-02-16T03:01:35.562Z,80.33
2019-02-16T03:04:39.449Z,78.70
2019-02-16T03:07:43.295Z,75.83
2019-02-16T03:10:47.209Z,92.80
2019-02-16T03:13:51.098Z,72.50
2019-02-16T03:16:54.939Z,85.23
2019-02-16T03:19:58.834Z,88.17
2019-02-16T03:23:16.510Z,78.40
2019-02-16T03:26:38.369Z,78.00
2019-02-16T03:29:47.820Z,87.90
2019-02-16T03:33:15.543Z,73.40
2019-02-16T03:36:43.444Z,86.80
2019-02-16T03:39:47.431Z,81.53
2019-02-16T03:42:51.296Z,80.37
2019-02-16T03:45:55.176Z,87.20
2019-02-16T03:48:59.014Z,75.60
2019-02-16T03:52:12.904Z,88.10
2019-02-16T03:55:08.409Z,83.87
2019-02-16T03:58:12.314Z,88.77
2019-02-16T04:01:16.150Z,85.13
2019-02-16T04:04:20.033Z,83.93
2019-02-16T04:07:23.935Z,89.97
2019-02-16T04:10:27.764Z,89.70
2019-02-16T04:13:32.159Z,84.13
2019-02-16T04:16:35.981Z,95.70
2019-02-16T04:19:39.863Z,86.87
2019-02-16T04:22:43.719Z,92.60
2019-02-16T04:25:47.610Z,96.90
2019-02-16T04:28:51.474Z,99.23
2019-02-16T04:31:55.317Z,96.43
2019-02-16T04:34:59.203Z,103.47
2019-02-16T04:38:03.054Z,100.23
2019-02-16T04:41:06.920Z,107.13
2019-02-16T04:44:10.800Z,96.23
2019-02-16T04:47:14.651Z,105.87
2019-02-16T04:50:18.536Z,105.97
2019-02-16T04:53:22.406Z,103.30
2019-02-16T04:56:26.352Z,100.60
2019-02-16T04:59:30.163Z,102.40
2019-02-16T05:02:34.070Z,125.40
2019-02-16T05:05:37.931Z,117.70
2019-02-16T05:08:41.806Z,141.23
2019-02-16T05:11:45.654Z,137.20
2019-02-16T05:14:49.534Z,157.57
2019-02-16T05:17:53.458Z,140.23
2019-02-16T05:20:57.292Z,151.47
2019-02-16T05:24:01.189Z,130.93
2019-02-16T05:27:05.118Z,160.27
2019-02-16T05:30:09.320Z,163.03
2019-02-16T05:33:13.188Z,181.43
2019-02-16T05:36:17.043Z,173.57
2019-02-16T05:39:20.908Z,175.07
2019-02-16T05:42:24.824Z,175.97
2019-02-16T05:45:28.694Z,165.47
2019-02-16T05:48:32.543Z,166.87
2019-02-16T05:51:36.432Z,163.97
2019-02-16T05:54:40.285Z,159.43
2019-02-16T05:57:44.156Z,157.67
2019-02-16T06:00:48.038Z,164.77
2019-02-16T06:03:51.891Z,158.67
2019-02-16T06:06:55.785Z,173.23
2019-02-16T06:09:59.656Z,181.13
2019-02-16T06:13:03.544Z,174.87
2019-02-16T06:16:07.423Z,179.23
2019-02-16T06:19:11.285Z,162.03
2019-02-16T06:22:15.981Z,156.60
2019-02-16T06:25:19.898Z,134.13
2019-02-16T06:28:23.752Z,121.00
2019-02-16T06:31:27.655Z,124.83
2019-02-16T06:34:32.469Z,111.37
2019-02-16T06:37:36.419Z,102.60
2019-02-16T06:40:41.189Z,108.90
2019-02-16T06:43:45.151Z,117.10
2019-02-16T06:46:49.049Z,105.27
2019-02-16T06:49:52.946Z,110.83
2019-02-16T06:52:56.766Z,128.77
2019-02-16T06:56:02.235Z,117.70
2019-02-16T06:59:06.149Z,121.93
2019-02-16T07:02:10.015Z,121.33
2019-02-16T07:05:13.891Z,116.77
2019-02-16T07:08:17.725Z,121.70
2019-02-16T07:11:21.620Z,123.10
2019-02-16T07:14:25.496Z,123.40
2019-02-16T07:17:37.046Z,126.63
2019-02-16T07:20:40.946Z,124.83
2019-02-16T07:23:44.805Z,120.30
2019-02-16T07:26:48.669Z,128.87
2019-02-16T07:29:52.513Z,131.57
2019-02-16T07:32:56.434Z,136.77
2019-02-16T07:36:02.729Z,124.83
2019-02-16T07:39:07.819Z,131.77
2019-02-16T07:42:11.716Z,127.47
2019-02-16T07:45:20.069Z,131.20
2019-02-16T07:48:28.249Z,144.90
2019-02-16T07:51:36.398Z,149.67
2019-02-16T07:54:41.849Z,150.93
2019-02-16T07:57:49.985Z,170.00
2019-02-16T08:00:58.189Z,153.70
2019-02-16T08:04:09.700Z,152.53
2019-02-16T08:07:15.114Z,149.40
2019-02-16T08:10:26.551Z,159.00
2019-02-16T08:13:34.736Z,143.90
2019-02-16T08:16:52.364Z,146.63
2019-02-16T08:20:01.012Z,155.80
2019-02-16T08:23:09.684Z,152.33
2019-02-16T08:26:15.159Z,134.93
2019-02-16T08:29:26.507Z,129.83
2019-02-16T08:32:34.686Z,116.23
2019-02-16T08:35:40.143Z,124.80
2019-02-16T08:38:45.596Z,142.33
2019-02-16T08:41:59.994Z,144.70
2019-02-16T08:45:21.965Z,143.07
2019-02-16T08:48:27.405Z,148.53
2019-02-16T08:51:32.876Z,151.03
2019-02-16T08:54:38.296Z,143.00
2019-02-16T08:57:43.741Z,150.53
2019-02-16T09:00:52.111Z,147.30
2019-02-16T09:03:57.592Z,130.90
2019-02-16T09:07:12.050Z,130.20
2019-02-16T09:10:40.265Z,119.43
2019-02-16T09:13:45.716Z,114.53
2019-02-16T09:17:09.489Z,84.70
2019-02-16T09:20:15.012Z,94.47
2019-02-16T09:23:28.994Z,93.57
2019-02-16T09:26:50.698Z,84.70
2019-02-16T09:30:02.045Z,73.87
2019-02-16T09:33:10.670Z,81.10
2019-02-16T09:36:25.077Z,90.07
2019-02-16T09:39:36.486Z,67.27
2019-02-16T09:42:41.980Z,73.37
2019-02-16T09:45:47.468Z,68.13
2019-02-16T09:48:52.922Z,69.30
2019-02-16T09:52:01.316Z,77.50
2019-02-16T09:55:10.749Z,71.80
2019-02-16T09:58:19.211Z,77.63
2019-02-16T10:01:40.931Z,75.40
2019-02-16T10:04:55.406Z,70.27
2019-02-16T10:08:03.634Z,71.57
2019-02-16T10:11:11.851Z,64.97
2019-02-16T10:14:33.867Z,64.70
2019-02-16T10:17:39.274Z,65.53
2019-02-16T10:20:59.835Z,64.83
2019-02-16T10:24:17.660Z,59.83
2019-02-16T10:27:27.208Z,62.97
2019-02-16T10:30:35.501Z,58.87
2019-02-16T10:33:46.431Z,49.77
2019-02-16T10:36:57.553Z,53.30
2019-02-16T10:40:09.174Z,52.37
2019-02-16T10:43:23.410Z,52.03
2019-02-16T10:46:41.165Z,46.97
2019-02-16T10:49:46.612Z,43.63
2019-02-16T10:52:57.902Z,44.80
2019-02-16T10:56:06.382Z,40.97
2019-02-16T10:59:13.669Z,33.50
2019-02-16T11:02:31.151Z,35.23
2019-02-16T11:05:36.575Z,39.13
2019-02-16T11:08:48.215Z,38.83
2019-02-16T11:11:53.654Z,35.03
2019-02-16T11:15:17.336Z,32.90
2019-02-16T11:18:25.355Z,34.53
2019-02-16T11:21:45.896Z,35.47
2019-02-16T11:24:57.425Z,25.53
2019-02-16T11:28:17.730Z,24.17
2019-02-16T11:31:29.177Z,25.47
2019-02-16T11:34:49.645Z,36.63
2019-02-16T11:37:55.120Z,42.77
2019-02-16T11:41:03.340Z,38.77
2019-02-16T11:44:25.176Z,38.90
2019-02-16T11:47:47.094Z,42.90
2019-02-16T11:50:58.735Z,45.43
2019-02-16T11:54:04.168Z,45.87
2019-02-16T11:57:15.569Z,48.30
2019-02-16T12:00:23.674Z,45.00
2019-02-16T12:03:37.901Z,48.23
2019-02-16T12:06:43.398Z,52.40
2019-02-16T12:09:54.570Z,48.67
2019-02-16T12:13:00.067Z,46.93
2019-02-16T12:16:14.054Z,58.90
2019-02-16T12:19:22.330Z,62.40
2019-02-16T12:22:27.770Z,59.03
2019-02-16T12:25:51.709Z,59.00
2019-02-16T12:29:12.094Z,54.90
2019-02-16T12:32:17.586Z,60.83
2019-02-16T12:35:32.204Z,57.60
2019-02-16T12:38:43.530Z,61.60
2019-02-16T12:42:05.185Z,59.70
2019-02-16T12:45:15.415Z,57.33
2019-02-16T12:48:26.332Z,47.00
2019-02-16T12:51:50.046Z,60.37
2019-02-16T12:55:14.991Z,48.67
2019-02-16T12:58:23.295Z,49.33
2019-02-16T13:01:28.731Z,50.43
2019-02-16T13:04:34.189Z,48.50
2019-02-16T13:07:51.753Z,39.83
2019-02-16T13:11:02.969Z,39.13
2019-02-16T13:14:08.479Z,40.00
2019-02-16T13:17:28.903Z,40.47
2019-02-16T13:20:37.072Z,44.70
2019-02-16T13:23:45.278Z,39.43
2019-02-16T13:26:50.708Z,39.73
2019-02-16T13:30:04.931Z,40.03
2019-02-16T13:33:26.481Z,38.37
2019-02-16T13:36:34.640Z,32.40
2019-02-16T13:39:56.327Z,30.30
2019-02-16T13:43:04.483Z,28.70
2019-02-16T13:46:26.328Z,32.93
2019-02-16T13:49:31.815Z,26.73
2019-02-16T13:52:39.911Z,26.83
2019-02-16T13:56:01.566Z,31.20
2019-02-16T13:59:06.990Z,25.73
2019-02-16T14:02:28.937Z,26.23
2019-02-16T14:05:50.606Z,25.63
2019-02-16T14:08:58.877Z,27.90
2019-02-16T14:12:06.870Z,28.77
2019-02-16T14:15:21.312Z,29.77
2019-02-16T14:18:25.176Z,40.07
2019-02-16T14:21:29.056Z,31.73
2019-02-16T14:24:43.384Z,31.07
2019-02-16T14:27:47.224Z,36.63
2019-02-16T14:30:51.118Z,37.90
2019-02-16T14:33:57.167Z,36.10
2019-02-16T14:37:02.125Z,30.33
2019-02-16T14:40:07.332Z,34.03
2019-02-16T14:43:11.180Z,31.20
2019-02-16T14:46:15.089Z,31.90
2019-02-16T14:49:18.897Z,34.30
2019-02-16T14:52:22.884Z,28.30
2019-02-16T14:55:26.761Z,32.83
2019-02-16T14:58:30.649Z,30.33
2019-02-16T15:01:34.549Z,31.97
2019-02-16T15:04:38.452Z,31.10
2019-02-16T15:07:42.294Z,34.87
2019-02-16T15:10:46.169Z,38.13
2019-02-16T15:13:50.020Z,32.93
2019-02-16T15:16:53.956Z,29.23
2019-02-16T15:19:57.824Z,32.73
2019-02-16T15:23:01.689Z,38.80
2019-02-16T15:26:05.522Z,38.13
2019-02-16T15:29:09.463Z,33.83
2019-02-16T15:32:13.292Z,42.20
2019-02-16T15:35:17.193Z,47.50
2019-02-16T15:38:21.016Z,42.07
2019-02-16T15:41:24.899Z,39.03
2019-02-16T15:44:28.816Z,44.23
2019-02-16T15:47:32.708Z,37.47
2019-02-16T15:50:36.582Z,41.33
2019-02-16T15:53:40.451Z,43.33
2019-02-16T15:56:44.357Z,43.47
2019-02-16T15:59:48.235Z,47.77
2019-02-16T16:02:52.204Z,43.93
2019-02-16T16:05:56.078Z,78.60
2019-02-16T16:09:01.769Z,81.23
2019-02-16T16:12:09.939Z,64.50
2019-02-16T16:15:23.871Z,60.47
2019-02-16T16:18:38.294Z,66.63
2019-02-16T16:22:00.433Z,69.07
2019-02-16T16:25:06.685Z,70.43
2019-02-16T16:28:28.673Z,70.77
2019-02-16T16:31:43.375Z,66.70
2019-02-16T16:34:51.577Z,74.10
2019-02-16T16:37:59.060Z,74.80
2019-02-16T16:41:04.154Z,85.07
2019-02-16T16:44:18.690Z,83.43
2019-02-16T16:47:40.324Z,78.27
2019-02-16T16:51:02.209Z,81.87
2019-02-16T16:54:25.719Z,72.80
2019-02-16T16:57:49.245Z,69.93
2019-02-16T17:00:59.272Z,77.27
2019-02-16T17:04:10.643Z,94.30
2019-02-16T17:07:22.037Z,88.23
2019-02-16T17:10:30.239Z,97.73
2019-02-16T17:13:35.686Z,96.40
2019-02-16T17:16:59.631Z,90.07
2019-02-16T17:20:22.218Z,92.03
2019-02-16T17:23:33.873Z,85.17
2019-02-16T17:26:44.770Z,84.67
2019-02-16T17:30:02.475Z,96.87
2019-02-16T17:33:10.920Z,106.43
2019-02-16T17:36:16.316Z,111.37
2019-02-16T17:39:21.769Z,113.77
2019-02-16T17:42:27.226Z,115.97
2019-02-16T17:45:32.714Z,110.80
2019-02-16T17:48:38.113Z,100.23
2019-02-16T17:51:46.562Z,105.93
2019-02-16T17:55:00.925Z,96.80
2019-02-16T17:58:22.595Z,100.30
2019-02-16T18:01:37.108Z,104.23
2019-02-16T18:04:42.517Z,97.43
2019-02-16T18:07:59.968Z,98.73
2019-02-16T18:11:14.290Z,107.17
2019-02-16T18:14:19.712Z,104.67
2019-02-16T18:17:31.049Z,119.67
2019-02-16T18:20:36.543Z,125.77
2019-02-16T18:23:41.968Z,118.47
2019-02-16T18:26:56.945Z,109.57
2019-02-16T18:30:08.621Z,113.43
2019-02-16T18:33:20.322Z,93.10
2019-02-16T18:36:44.112Z,96.17
2019-02-16T18:39:55.580Z,102.17
2019-02-16T18:43:08.474Z,94.87
2019-02-16T18:46:23.089Z,106.23
2019-02-16T18:49:28.499Z,115.10
2019-02-16T18:52:52.367Z,118.03
2019-02-16T18:56:03.870Z,131.97
2019-02-16T18:59:09.272Z,117.73
2019-02-16T19:02:29.539Z,123.63
2019-02-16T19:05:35.024Z,101.20
2019-02-16T19:08:52.325Z,108.73
2019-02-16T19:12:09.803Z,108.87
2019-02-16T19:15:18.195Z,114.97
2019-02-16T19:18:23.632Z,117.03
2019-02-16T19:21:29.093Z,108.33
2019-02-16T19:24:34.600Z,117.13
2019-02-16T19:27:49.052Z,107.30
2019-02-16T19:30:57.250Z,101.30
2019-02-16T19:34:17.474Z,104.60
2019-02-16T19:37:25.965Z,106.80
2019-02-16T19:40:31.457Z,108.77
2019-02-16T19:43:51.862Z,111.63
2019-02-16T19:47:13.404Z,106.80
2019-02-16T19:50:18.839Z,99.10
2019-02-16T19:53:24.249Z,104.60
2019-02-16T19:56:32.726Z,106.40
2019-02-16T19:59:38.197Z,103.93
2019-02-16T20:02:49.611Z,103.27
2019-02-16T20:06:03.800Z,101.77
2019-02-16T20:09:09.561Z,105.23
2019-02-16T20:12:14.949Z,96.77
2019-02-16T20:15:37.026Z,113.93
2019-02-16T20:18:45.291Z,124.30
2019-02-16T20:21:56.735Z,111.27
2019-02-16T20:25:17.124Z,107.40
2019-02-16T20:28:28.626Z,113.03
2019-02-16T20:31:37.125Z,114.43
2019-02-16T20:34:42.600Z,128.23
2019-02-16T20:37:53.502Z,124.13
2019-02-16T20:41:04.974Z,124.87
2019-02-16T20:44:19.445Z,121.60
2019-02-16T20:47:24.976Z,127.63
2019-02-16T20:50:30.365Z,117.50
2019-02-16T20:53:38.910Z,117.10
2019-02-16T20:56:47.162Z,136.20
2019-02-16T20:59:58.434Z,122.27
2019-02-16T21:03:12.473Z,133.83
2019-02-16T21:06:17.895Z,115.63
2019-02-16T21:09:23.358Z,122.50
2019-02-16T21:12:28.804Z,139.90
2019-02-16T21:15:36.680Z,132.97
2019-02-16T21:18:42.180Z,140.30
2019-02-16T21:22:05.510Z,147.00
2019-02-16T21:25:19.519Z,156.30
2019-02-16T21:28:24.955Z,146.37
2019-02-16T21:31:30.415Z,156.87
2019-02-16T21:34:35.907Z,153.17
2019-02-16T21:37:56.372Z,153.93
2019-02-16T21:41:01.846Z,160.53
2019-02-16T21:44:10.083Z,158.07
2019-02-16T21:47:15.533Z,157.90
2019-02-16T21:50:36.313Z,144.10
2019-02-16T21:53:54.014Z,147.00
2019-02-16T21:57:14.696Z,186.43
2019-02-16T22:00:22.955Z,193.77
2019-02-16T22:03:28.354Z,213.03
2019-02-16T22:06:33.849Z,289.00
2019-02-16T22:09:39.260Z,295.27
2019-02-16T22:12:53.480Z,261.07
2019-02-16T22:15:57.435Z,297.37
2019-02-16T22:19:01.239Z,265.40
2019-02-16T22:22:05.177Z,280.17
2019-02-16T22:25:09.100Z,281.07
2019-02-16T22:28:18.713Z,258.40
2019-02-16T22:31:18.533Z,236.80
2019-02-16T22:34:22.425Z,222.80
2019-02-16T22:37:26.350Z,233.33
2019-02-16T22:40:30.214Z,224.57
2019-02-16T22:43:34.117Z,234.33
2019-02-16T22:46:37.995Z,239.50
2019-02-16T22:49:41.911Z,269.03
2019-02-16T22:52:45.744Z,243.27
2019-02-16T22:55:49.669Z,249.47
2019-02-16T22:58:53.571Z,237.97
2019-02-16T23:01:57.430Z,233.50
2019-02-16T23:05:01.333Z,225.80
2019-02-16T23:08:05.234Z,206.30
2019-02-16T23:11:09.116Z,219.57
2019-02-16T23:14:13.660Z,186.13
2019-02-16T23:17:17.561Z,181.73
2019-02-16T23:20:21.421Z,177.37
2019-02-16T23:23:25.289Z,179.97
2019-02-16T23:26:29.617Z,171.03
2019-02-16T23:29:33.454Z,182.13
2019-02-16T23:32:37.333Z,184.60
2019-02-16T23:35:41.182Z,172.80
2019-02-16T23:38:45.146Z,186.17
2019-02-16T23:41:48.975Z,191.73
2019-02-16T23:44:52.877Z,187.23
2019-02-16T23:47:56.744Z,167.30
2019-02-16T23:51:00.614Z,196.07
2019-02-16T23:54:04.505Z,219.07
2019-02-16T23:57:08.335Z,229.90
